Time;durP1;ratioP1;P1;durP2;ratioP2;P2;SDS_P1;SDS_P2;PMS_P1;PMS_P2;Temp;Humidity;BMP_temperature;BMP_pressure;BME280_temperature;BME280_humidity;BME280_pressure;Samples;Min_cycle;Max_cycle;Signal;HPM_P1;HPM_P2
2023/12/17 00:00:00;;;;;;;0.20;0.20;;;;;;;-0.17;100.00;96576.66;4986071;28;20253;-78
2023/12/17 00:02:38;;;;;;;1.58;1.23;;;;;;;-0.15;100.00;96571.97;4985924;28;20205;-78
2023/12/17 00:05:05;;;;;;;6.22;2.50;;;;;;;-0.01;100.00;96578.84;4984103;28;20212;-78
2023/12/17 00:07:34;;;;;;;4.63;1.83;;;;;;;-0.09;100.00;96570.28;4988303;28;20237;-78
2023/12/17 00:10:00;;;;;;;0.80;0.80;;;;;;;-0.10;100.00;96573.97;4983490;28;20210;-78
2023/12/17 00:12:27;;;;;;;3.08;1.88;;;;;;;-0.01;100.00;96573.53;4988815;28;20205;-78
2023/12/17 00:14:54;;;;;;;3.38;1.77;;;;;;;-0.24;100.00;96578.53;4987301;28;20213;-78
2023/12/17 00:17:22;;;;;;;3.05;2.00;;;;;;;-0.22;100.00;96581.81;4984865;28;20584;-79
2023/12/17 00:19:49;;;;;;;1.88;1.02;;;;;;;-0.35;100.00;96597.84;4987002;28;20485;-78
2023/12/17 00:22:16;;;;;;;2.13;1.63;;;;;;;-0.15;100.00;96593.25;4986700;28;20214;-78
2023/12/17 00:24:42;;;;;;;4.85;1.83;;;;;;;-0.14;100.00;96594.91;4984104;28;20644;-77
2023/12/17 00:27:09;;;;;;;2.22;1.42;;;;;;;-0.03;100.00;96606.72;4986438;28;20276;-78
2023/12/17 00:29:36;;;;;;;3.22;2.17;;;;;;;-0.11;100.00;96593.63;4986198;28;20206;-76
2023/12/17 00:32:03;;;;;;;3.13;1.80;;;;;;;-0.03;100.00;96599.56;4989124;28;20562;-77
2023/12/17 00:34:32;;;;;;;3.03;1.85;;;;;;;0.20;100.00;96607.00;4984037;28;20202;-78
2023/12/17 00:37:00;;;;;;;1.92;1.35;;;;;;;0.29;100.00;96608.38;4987455;28;20217;-77
2023/12/17 00:39:28;;;;;;;3.47;1.80;;;;;;;0.19;100.00;96609.88;4986535;28;20773;-76
2023/12/17 00:41:54;;;;;;;3.95;2.38;;;;;;;0.32;100.00;96612.47;4986776;28;20652;-77
2023/12/17 00:44:21;;;;;;;1.80;1.15;;;;;;;0.26;100.00;96626.66;4984122;28;20699;-77
2023/12/17 00:46:48;;;;;;;0.95;0.73;;;;;;;0.21;100.00;96618.47;4987143;28;20209;-76
2023/12/17 00:49:15;;;;;;;2.63;1.42;;;;;;;0.25;100.00;96620.53;4988958;28;20228;-78
2023/12/17 00:51:43;;;;;;;2.05;1.52;;;;;;;0.15;100.00;96590.00;4984176;28;20203;-77
2023/12/17 00:54:10;;;;;;;2.92;1.77;;;;;;;0.10;100.00;96611.16;4985702;28;20578;-76
2023/12/17 00:56:37;;;;;;;3.67;1.90;;;;;;;0.17;100.00;96617.25;4986720;28;20194;-76
2023/12/17 00:59:04;;;;;;;2.45;1.38;;;;;;;-0.06;100.00;96597.31;4983156;28;20229;-76
2023/12/17 01:01:31;;;;;;;2.90;1.42;;;;;;;-0.06;100.00;96607.97;4984439;28;20657;-76
2023/12/17 01:03:58;;;;;;;4.78;1.92;;;;;;;-0.10;100.00;96608.59;4987245;28;20209;-76
2023/12/17 01:06:25;;;;;;;2.78;1.50;;;;;;;-0.04;100.00;96613.09;4982916;28;20202;-76
2023/12/17 01:08:53;;;;;;;3.38;1.55;;;;;;;-0.17;100.00;96611.28;4988550;28;20250;-75
2023/12/17 01:11:19;;;;;;;3.17;1.85;;;;;;;-0.09;100.00;96613.72;4983220;28;20678;-75
2023/12/17 01:13:46;;;;;;;3.22;1.75;;;;;;;0.03;100.00;96605.03;4987058;28;20261;-75
2023/12/17 01:16:13;;;;;;;3.55;2.13;;;;;;;0.02;99.84;96603.41;4985230;28;20213;-76
2023/12/17 01:18:40;;;;;;;2.55;1.58;;;;;;;0.04;99.15;96612.81;4984896;28;20213;-75
2023/12/17 01:21:07;;;;;;;3.47;2.40;;;;;;;0.10;99.22;96611.16;4984559;28;20284;-76
2023/12/17 01:23:34;;;;;;;3.80;2.35;;;;;;;0.17;98.05;96607.44;4985530;28;20240;-76
2023/12/17 01:26:02;;;;;;;2.33;1.73;;;;;;;0.07;97.92;96611.59;4985488;28;20213;-77
2023/12/17 01:28:28;;;;;;;1.95;1.23;;;;;;;0.15;99.00;96614.00;4981972;28;20212;-76
2023/12/17 01:30:55;;;;;;;1.63;1.20;;;;;;;-0.06;98.46;96623.94;4987656;28;20259;-76
2023/12/17 01:33:22;;;;;;;4.13;1.65;;;;;;;-0.16;98.89;96628.91;4985126;28;20206;-76
2023/12/17 01:35:49;;;;;;;3.42;2.10;;;;;;;-0.23;99.71;96632.59;4982186;28;20209;-76
2023/12/17 01:38:16;;;;;;;3.13;1.50;;;;;;;-0.14;100.00;96626.84;4986521;28;20291;-76
2023/12/17 01:40:43;;;;;;;4.88;2.15;;;;;;;-0.19;99.25;96623.19;4984154;28;20210;-76
2023/12/17 01:43:11;;;;;;;3.42;1.30;;;;;;;-0.14;99.23;96624.19;4986725;28;20353;-74
2023/12/17 01:45:37;;;;;;;1.58;1.45;;;;;;;-0.31;100.00;96624.88;4984119;28;20211;-74
2023/12/17 01:48:05;;;;;;;6.63;1.52;;;;;;;-0.26;100.00;96633.84;4988312;28;20245;-75
2023/12/17 01:50:32;;;;;;;1.05;0.77;;;;;;;-0.12;100.00;96634.59;4984967;28;20541;-75
2023/12/17 01:52:59;;;;;;;2.83;1.40;;;;;;;-0.14;99.38;96642.03;4985372;28;20205;-77
2023/12/17 01:55:28;;;;;;;1.70;1.25;;;;;;;-0.07;99.14;96640.13;4982798;28;20217;-75
2023/12/17 01:57:55;;;;;;;2.15;1.10;;;;;;;-0.11;99.39;96634.41;4986323;28;20202;-74
2023/12/17 02:00:24;;;;;;;1.83;1.23;;;;;;;-0.25;99.69;96632.81;4981951;28;20230;-75
2023/12/17 02:02:51;;;;;;;4.90;1.73;;;;;;;-0.35;100.00;96629.78;4987516;28;20202;-75
2023/12/17 02:05:17;;;;;;;1.98;1.25;;;;;;;-0.42;100.00;96634.31;4984665;28;20206;-76
2023/12/17 02:07:44;;;;;;;3.20;1.25;;;;;;;-0.58;100.00;96630.25;4984740;28;20202;-76
2023/12/17 02:10:11;;;;;;;6.63;2.00;;;;;;;-0.50;100.00;96626.53;4982549;28;20606;-75
2023/12/17 02:12:37;;;;;;;2.75;1.67;;;;;;;-0.49;100.00;96618.34;4983499;28;20205;-75
2023/12/17 02:15:05;;;;;;;2.33;1.35;;;;;;;-0.28;99.63;96609.28;4984348;28;20293;-76
2023/12/17 02:17:33;;;;;;;3.28;1.70;;;;;;;-0.32;99.69;96613.41;4984464;28;20202;-75
2023/12/17 02:20:00;;;;;;;6.53;2.03;;;;;;;-0.28;99.36;96619.94;4983027;28;20225;-75
2023/12/17 02:22:27;;;;;;;3.15;1.45;;;;;;;-0.44;98.55;96612.41;4984473;28;20210;-74
2023/12/17 02:24:56;;;;;;;0.20;0.20;;;;;;;-0.53;99.17;96606.47;4986434;28;20256;-75
2023/12/17 02:27:24;;;;;;;0.20;0.20;;;;;;;-0.46;98.94;96617.13;4981769;28;20213;-74
2023/12/17 02:29:51;;;;;;;0.20;0.20;;;;;;;-0.41;99.65;96614.66;4983645;28;20250;-74
2023/12/17 02:32:18;;;;;;;0.22;0.22;;;;;;;-0.43;98.95;96622.03;4983243;28;20551;-74
2023/12/17 02:34:45;;;;;;;0.20;0.20;;;;;;;-0.40;99.08;96619.75;4984065;28;20292;-74
2023/12/17 02:37:12;;;;;;;0.10;0.10;;;;;;;-0.51;99.22;96614.25;4983162;28;20206;-76
2023/12/17 02:39:39;;;;;;;2.38;1.10;;;;;;;-0.48;99.37;96614.66;4983409;28;20300;-75
2023/12/17 02:42:07;;;;;;;0.20;0.20;;;;;;;-0.51;100.00;96620.41;4984483;28;20212;-75
2023/12/17 02:44:34;;;;;;;0.25;0.25;;;;;;;-0.44;99.57;96615.06;4982718;28;20212;-75
2023/12/17 02:47:01;;;;;;;0.20;0.20;;;;;;;-0.52;99.49;96620.59;4985647;28;20206;-75
2023/12/17 02:49:28;;;;;;;0.20;0.20;;;;;;;-0.82;99.79;96634.38;4986771;28;20305;-75
2023/12/17 02:51:56;;;;;;;1.65;1.55;;;;;;;-0.98;100.00;96634.81;4984751;28;20206;-74
2023/12/17 02:54:23;;;;;;;0.22;0.22;;;;;;;-0.86;100.00;96635.84;4982552;28;20653;-76
2023/12/17 02:56:51;;;;;;;1.30;0.65;;;;;;;-0.88;100.00;96635.22;4982417;28;20252;-76
2023/12/17 02:59:19;;;;;;;1.75;1.35;;;;;;;-0.79;100.00;96622.50;4985766;28;20213;-76
2023/12/17 03:01:46;;;;;;;1.92;1.35;;;;;;;-0.70;100.00;96620.47;4981637;28;20272;-76
2023/12/17 03:04:14;;;;;;;2.55;1.33;;;;;;;-0.58;100.00;96618.81;4984692;28;20274;-76
2023/12/17 03:06:41;;;;;;;3.67;1.15;;;;;;;-0.81;100.00;96625.38;4984233;28;20207;-75
2023/12/17 03:09:07;;;;;;;2.63;1.02;;;;;;;-0.76;100.00;96625.59;4983959;28;20369;-76
2023/12/17 03:11:34;;;;;;;1.60;1.08;;;;;;;-0.65;100.00;96628.63;4982796;28;20648;-76
2023/12/17 03:14:01;;;;;;;3.67;1.58;;;;;;;-0.57;99.83;96631.91;4986055;28;20272;-76
2023/12/17 03:16:29;;;;;;;1.85;1.42;;;;;;;-0.66;100.00;96627.00;4984787;28;20214;-77
2023/12/17 03:18:56;;;;;;;1.70;1.50;;;;;;;-0.76;100.00;96627.41;4988029;28;20296;-76
2023/12/17 03:21:23;;;;;;;2.53;1.45;;;;;;;-0.93;100.00;96631.53;4986265;28;20233;-76
2023/12/17 03:23:50;;;;;;;2.65;1.73;;;;;;;-0.93;100.00;96624.38;4988584;28;20226;-76
2023/12/17 03:26:17;;;;;;;4.20;1.33;;;;;;;-0.97;100.00;96623.16;4986186;28;20290;-76
2023/12/17 03:28:44;;;;;;;2.63;1.63;;;;;;;-0.92;100.00;96620.69;4986965;28;20312;-76
2023/12/17 03:31:13;;;;;;;1.45;1.10;;;;;;;-0.93;100.00;96621.72;4986914;28;20201;-75
2023/12/17 03:33:42;;;;;;;3.20;1.65;;;;;;;-1.11;100.00;96621.53;4987716;28;20197;-77
2023/12/17 03:36:09;;;;;;;1.38;0.82;;;;;;;-1.04;100.00;96629.50;4984638;28;20285;-75
2023/12/17 03:38:36;;;;;;;0.70;0.70;;;;;;;-1.10;100.00;96636.47;4986407;28;20707;-74
2023/12/17 03:41:02;;;;;;;3.60;1.52;;;;;;;-1.00;100.00;96636.88;4988150;28;20214;-75
2023/12/17 03:43:29;;;;;;;4.53;2.03;;;;;;;-0.99;100.00;96643.81;4984930;28;20206;-76
2023/12/17 03:45:56;;;;;;;1.45;1.13;;;;;;;-0.99;100.00;96643.00;4987110;28;20582;-75
2023/12/17 03:48:23;;;;;;;2.50;1.23;;;;;;;-1.07;100.00;96647.50;4987868;28;20213;-75
2023/12/17 03:50:51;;;;;;;1.10;0.90;;;;;;;-1.03;100.00;96641.78;4986379;28;20201;-76
2023/12/17 03:53:18;;;;;;;2.75;1.70;;;;;;;-1.11;100.00;96645.47;4984885;28;20210;-75
2023/12/17 03:55:44;;;;;;;1.15;0.90;;;;;;;-0.97;100.00;96652.41;4987597;28;20217;-75
2023/12/17 03:58:11;;;;;;;1.98;0.77;;;;;;;-1.00;100.00;96652.00;4988898;28;20205;-75
2023/12/17 04:00:38;;;;;;;3.47;1.48;;;;;;;-1.23;100.00;96647.09;4985486;28;20586;-76
2023/12/17 04:03:05;;;;;;;1.88;1.50;;;;;;;-1.15;100.00;96666.31;4986755;28;20217;-75
2023/12/17 04:05:31;;;;;;;1.92;0.80;;;;;;;-1.13;100.00;96658.16;4984791;28;20218;-75
2023/12/17 04:07:59;;;;;;;3.20;0.73;;;;;;;-1.04;100.00;96662.22;4987143;28;20202;-75
2023/12/17 04:10:26;;;;;;;3.00;1.13;;;;;;;-1.03;100.00;96669.19;4984189;28;20265;-76
2023/12/17 04:12:53;;;;;;;1.33;1.02;;;;;;;-1.00;100.00;96673.28;4987207;28;20206;-75
2023/12/17 04:15:20;;;;;;;1.13;0.88;;;;;;;-0.99;100.00;96665.09;4985622;28;20213;-75
2023/12/17 04:17:47;;;;;;;1.52;1.15;;;;;;;-0.98;100.00;96668.59;4984496;28;20213;-74
2023/12/17 04:20:14;;;;;;;1.58;1.08;;;;;;;-0.93;100.00;96661.59;4985773;28;20611;-74
2023/12/17 04:22:41;;;;;;;1.35;1.10;;;;;;;-0.77;100.00;96663.03;4985723;28;20211;-74
2023/12/17 04:25:10;;;;;;;2.03;1.08;;;;;;;-0.72;100.00;96672.03;4986980;28;20236;-76
2023/12/17 04:27:36;;;;;;;1.27;1.17;;;;;;;-0.78;100.00;96666.72;4984071;28;20211;-74
2023/12/17 04:30:03;;;;;;;1.25;1.00;;;;;;;-0.86;100.00;96659.78;4987356;28;20248;-74
2023/12/17 04:32:30;;;;;;;1.63;1.25;;;;;;;-0.76;100.00;96660.16;4985940;28;20214;-77
2023/12/17 04:34:57;;;;;;;2.08;1.23;;;;;;;-0.78;100.00;96672.84;4986766;28;20209;-74
2023/12/17 04:37:24;;;;;;;1.83;1.65;;;;;;;-0.72;100.00;96656.09;4984517;28;20217;-74
2023/12/17 04:39:51;;;;;;;4.25;2.20;;;;;;;-0.78;100.00;96666.72;4985744;28;20323;-74
2023/12/17 04:42:19;;;;;;;1.23;1.13;;;;;;;-0.74;100.00;96670.63;4985348;28;20534;-75
2023/12/17 04:44:46;;;;;;;2.65;1.30;;;;;;;-0.74;100.00;96663.44;4985260;28;20284;-75
2023/12/17 04:47:12;;;;;;;3.28;1.45;;;;;;;-0.68;100.00;96667.09;4988325;28;20202;-74
2023/12/17 04:49:39;;;;;;;1.88;1.55;;;;;;;-0.79;100.00;96671.22;4986054;28;20201;-75
2023/12/17 04:52:07;;;;;;;1.75;0.77;;;;;;;-0.80;100.00;96674.91;4983035;28;20205;-76
2023/12/17 04:54:33;;;;;;;1.20;1.02;;;;;;;-0.65;100.00;96681.84;4986484;28;20198;-74
2023/12/17 04:57:00;;;;;;;3.63;1.50;;;;;;;-0.79;100.00;96684.53;4985902;28;20206;-75
2023/12/17 04:59:28;;;;;;;6.05;0.80;;;;;;;-0.85;100.00;96685.34;4984271;28;20213;-75
2023/12/17 05:01:55;;;;;;;1.40;1.02;;;;;;;-0.92;100.00;96681.88;4985703;28;20625;-75
2023/12/17 05:04:22;;;;;;;1.98;1.20;;;;;;;-1.08;100.00;96687.59;4986561;28;20223;-75
2023/12/17 05:06:49;;;;;;;2.30;1.90;;;;;;;-0.77;100.00;96687.78;4986327;28;20218;-75
2023/12/17 05:09:15;;;;;;;1.83;1.13;;;;;;;-0.79;100.00;96684.53;4985383;28;20209;-76
2023/12/17 05:11:42;;;;;;;2.88;1.45;;;;;;;-0.75;100.00;96690.25;4982641;28;20213;-74
2023/12/17 05:14:09;;;;;;;3.70;1.80;;;;;;;-0.94;100.00;96699.03;4986856;28;20206;-75
2023/12/17 05:16:37;;;;;;;1.83;0.93;;;;;;;-1.21;100.00;96703.53;4985192;28;20245;-75
2023/12/17 05:19:04;;;;;;;3.65;1.58;;;;;;;-1.31;100.00;96701.28;4985717;28;20272;-73
2023/12/17 05:21:30;;;;;;;2.60;1.23;;;;;;;-1.36;100.00;96710.84;4985303;28;20274;-74
2023/12/17 05:23:57;;;;;;;2.42;1.48;;;;;;;-1.31;100.00;96706.59;4985463;28;20210;-74
2023/12/17 05:26:24;;;;;;;3.42;1.67;;;;;;;-1.14;100.00;96709.69;4982964;28;20659;-75
2023/12/17 05:28:51;;;;;;;1.85;1.50;;;;;;;-1.31;100.00;96711.91;4986873;28;20197;-74
2023/12/17 05:31:18;;;;;;;4.13;1.95;;;;;;;-1.31;100.00;96719.88;4983343;28;20201;-75
2023/12/17 05:33:46;;;;;;;1.45;1.35;;;;;;;-1.42;100.00;96722.31;4986549;28;20249;-75
2023/12/17 05:36:13;;;;;;;2.05;1.67;;;;;;;-1.40;100.00;96733.56;4982396;28;20293;-75
2023/12/17 05:38:40;;;;;;;2.20;1.58;;;;;;;-1.30;100.00;96731.34;4983038;28;20242;-76
2023/12/17 05:41:07;;;;;;;2.78;1.60;;;;;;;-1.44;100.00;96735.78;4986121;28;20572;-76
2023/12/17 05:43:35;;;;;;;3.92;1.65;;;;;;;-1.35;100.00;96729.25;4982751;28;20260;-75
2023/12/17 05:46:02;;;;;;;2.33;1.58;;;;;;;-1.32;100.00;96738.69;4985367;28;20214;-74
2023/12/17 05:48:29;;;;;;;2.53;1.17;;;;;;;-1.44;100.00;96723.31;4984810;28;20655;-76
2023/12/17 05:50:57;;;;;;;6.68;1.40;;;;;;;-1.30;100.00;96739.31;4966103;28;20214;-74
2023/12/17 05:53:24;;;;;;;1.65;1.10;;;;;;;-1.43;100.00;96729.47;4982875;28;20579;-75
2023/12/17 05:55:51;;;;;;;1.08;0.93;;;;;;;-1.38;100.00;96728.88;4982153;28;20623;-75
2023/12/17 05:58:18;;;;;;;1.98;1.33;;;;;;;-1.25;100.00;96734.22;4979035;28;20202;-77
2023/12/17 06:00:56;;;;;;;1.33;0.95;;;;;;;-1.24;100.00;96731.34;4986677;28;20614;-76
2023/12/17 06:03:23;;;;;;;3.47;1.08;;;;;;;-1.20;100.00;96731.75;4982846;28;20544;-76
2023/12/17 06:05:50;;;;;;;2.22;1.20;;;;;;;-1.28;100.00;96726.63;4983217;28;20201;-75
2023/12/17 06:08:18;;;;;;;8.77;2.25;;;;;;;-1.06;100.00;96728.09;4984861;28;20210;-76
2023/12/17 06:10:44;;;;;;;3.20;1.05;;;;;;;-0.97;100.00;96724.22;4982060;28;20261;-75
2023/12/17 06:13:11;;;;;;;2.15;1.48;;;;;;;-1.07;100.00;96731.78;4986658;28;20213;-75
2023/12/17 06:15:38;;;;;;;2.78;1.77;;;;;;;-1.14;100.00;96736.28;4987117;28;20210;-76
2023/12/17 06:18:05;;;;;;;1.40;0.82;;;;;;;-0.72;100.00;96729.75;4983315;28;20291;-75
2023/12/17 06:20:32;;;;;;;2.72;1.27;;;;;;;-0.29;100.00;96735.47;4982071;28;20217;-74
2023/12/17 06:22:59;;;;;;;3.13;1.65;;;;;;;-0.26;100.00;96724.38;4981776;28;20213;-74
2023/12/17 06:25:27;;;;;;;2.13;1.33;;;;;;;-0.14;100.00;96722.75;4983960;28;20206;-74
2023/12/17 06:27:54;;;;;;;2.83;1.52;;;;;;;-0.26;100.00;96728.88;4981488;28;20206;-74
2023/12/17 06:30:21;;;;;;;1.30;1.17;;;;;;;-0.27;100.00;96733.38;4981572;28;20214;-75
2023/12/17 06:32:48;;;;;;;3.85;1.83;;;;;;;-0.40;100.00;96733.41;4978124;28;20202;-76
2023/12/17 06:35:15;;;;;;;3.33;1.80;;;;;;;-0.40;100.00;96738.72;4973772;28;20345;-74
2023/12/17 06:37:41;;;;;;;1.98;1.40;;;;;;;-0.70;100.00;96742.88;4971551;28;20249;-75
2023/12/17 06:40:10;;;;;;;2.55;1.50;;;;;;;-0.48;100.00;96741.63;4983284;28;20230;-75
2023/12/17 06:42:38;;;;;;;2.42;1.05;;;;;;;-0.63;100.00;96738.34;4975182;28;20581;-75
2023/12/17 06:45:06;;;;;;;1.50;1.08;;;;;;;-0.68;100.00;96738.16;4981632;28;20198;-76
2023/12/17 06:47:33;;;;;;;1.77;1.30;;;;;;;-0.60;100.00;96748.59;4982374;28;20217;-75
2023/12/17 06:50:00;;;;;;;1.75;0.80;;;;;;;-0.57;100.00;96758.84;4982791;28;20244;-75
2023/12/17 06:52:27;;;;;;;0.90;0.90;;;;;;;-0.53;100.00;96757.38;4985192;28;20202;-74
2023/12/17 06:54:53;;;;;;;2.38;1.45;;;;;;;-0.36;100.00;96764.75;4990455;28;20228;-74
2023/12/17 06:57:20;;;;;;;0.45;0.45;;;;;;;-0.43;100.00;96760.47;4985689;28;20202;-75
2023/12/17 06:59:48;;;;;;;1.77;1.55;;;;;;;-0.35;100.00;96762.91;4988086;28;20261;-74
2023/12/17 07:02:15;;;;;;;3.22;1.38;;;;;;;-0.24;100.00;96764.94;4986662;28;20284;-75
2023/12/17 07:04:42;;;;;;;3.42;1.42;;;;;;;-0.16;100.00;96766.59;4987922;28;20725;-74
2023/12/17 07:07:09;;;;;;;2.33;0.98;;;;;;;0.00;100.00;96766.16;4988096;28;20231;-74
2023/12/17 07:09:36;;;;;;;1.20;1.02;;;;;;;0.17;100.00;96767.31;4984802;28;20240;-76
2023/12/17 07:12:02;;;;;;;3.20;1.30;;;;;;;0.08;100.00;96773.09;4986876;28;20215;-75
2023/12/17 07:14:29;;;;;;;7.60;2.28;;;;;;;0.06;100.00;96780.47;4988239;28;20214;-74
2023/12/17 07:16:57;;;;;;;1.95;1.60;;;;;;;0.07;100.00;96784.78;4989355;28;20210;-74
2023/12/17 07:19:24;;;;;;;3.22;1.45;;;;;;;0.35;99.97;96780.81;4987090;28;20264;-74
2023/12/17 07:21:51;;;;;;;2.47;1.48;;;;;;;0.69;99.48;96776.94;4989426;28;20272;-74
2023/12/17 07:24:18;;;;;;;1.10;0.98;;;;;;;0.79;97.84;96775.69;4986179;28;20233;-74
2023/12/17 07:26:48;;;;;;;3.03;1.42;;;;;;;0.63;97.40;96761.00;4986530;28;20210;-75
2023/12/17 07:29:15;;;;;;;1.15;1.05;;;;;;;0.76;97.54;96776.13;4989482;28;20229;-76
2023/12/17 07:31:42;;;;;;;1.35;1.25;;;;;;;0.91;97.41;96764.13;4990636;28;20204;-76
2023/12/17 07:34:10;;;;;;;1.50;1.38;;;;;;;0.82;95.80;96748.59;4978370;28;20261;-76
2023/12/17 07:36:37;;;;;;;2.63;1.42;;;;;;;1.03;97.08;96756.25;4986177;28;20268;-75
2023/12/17 07:39:06;;;;;;;1.25;1.00;;;;;;;0.99;96.73;96749.72;4985249;28;20301;-77
2023/12/17 07:41:33;;;;;;;3.17;1.45;;;;;;;1.32;96.15;96755.66;4988114;28;20349;-76
2023/12/17 07:44:00;;;;;;;0.50;0.50;;;;;;;1.57;94.27;96752.16;4984139;28;20625;-75
2023/12/17 07:46:26;;;;;;;0.20;0.20;;;;;;;1.33;94.57;96762.63;4989141;28;20217;-74
2023/12/17 07:48:53;;;;;;;0.73;0.73;;;;;;;1.25;95.56;96772.72;4998108;28;20617;-76
2023/12/17 07:51:22;;;;;;;0.28;0.28;;;;;;;1.13;94.92;96777.94;4993032;28;20217;-76
2023/12/17 07:53:49;;;;;;;0.20;0.20;;;;;;;1.07;95.22;96781.50;4993580;28;20213;-76
2023/12/17 07:56:16;;;;;;;0.30;0.30;;;;;;;1.19;95.56;96781.63;4986729;28;20664;-75
2023/12/17 07:58:42;;;;;;;0.20;0.20;;;;;;;1.17;95.17;96789.84;4988676;28;20202;-76
2023/12/17 08:01:10;;;;;;;0.20;0.20;;;;;;;0.78;96.29;96790.88;4987798;28;20202;-76
2023/12/17 08:03:37;;;;;;;0.20;0.20;;;;;;;0.90;96.20;96793.69;4984686;28;20297;-74
2023/12/17 08:06:04;;;;;;;0.10;0.10;;;;;;;1.08;95.72;96790.31;4988466;28;20573;-78
2023/12/17 08:08:32;;;;;;;0.20;0.20;;;;;;;1.28;94.63;96789.16;4988661;28;20202;-79
2023/12/17 08:10:59;;;;;;;0.20;0.20;;;;;;;1.72;95.02;96792.72;4987072;28;20280;-78
2023/12/17 08:13:26;;;;;;;0.57;0.57;;;;;;;1.63;93.81;96783.34;4984884;28;20583;-79
2023/12/17 08:15:54;;;;;;;0.20;0.20;;;;;;;1.71;92.57;96799.91;4988059;28;20217;-79
2023/12/17 08:18:22;;;;;;;0.20;0.20;;;;;;;1.56;92.09;96801.28;4987819;28;20211;-76
2023/12/17 08:20:49;;;;;;;0.88;0.88;;;;;;;0.86;94.12;96803.16;4980684;28;20210;-76
2023/12/17 08:23:16;;;;;;;1.25;0.73;;;;;;;0.79;95.55;96805.03;4982599;28;20226;-76
2023/12/17 08:25:44;;;;;;;0.20;0.20;;;;;;;0.84;96.57;96811.34;4984798;28;20280;-77
2023/12/17 08:28:11;;;;;;;0.25;0.25;;;;;;;1.14;95.83;96822.28;4981325;28;20544;-77
2023/12/17 08:30:39;;;;;;;0.20;0.20;;;;;;;1.19;95.84;96808.31;4984573;28;20292;-78
2023/12/17 08:33:07;;;;;;;0.30;0.30;;;;;;;1.31;95.10;96822.59;4982369;28;20202;-80
2023/12/17 08:35:36;;;;;;;0.38;0.38;;;;;;;1.27;95.06;96819.53;4982516;28;20244;-78
2023/12/17 08:38:05;;;;;;;0.20;0.20;;;;;;;1.83;94.47;96809.88;4988548;28;20234;-77
2023/12/17 08:40:33;;;;;;;0.20;0.20;;;;;;;2.03;93.09;96806.03;4985255;28;20364;-79
2023/12/17 08:43:02;;;;;;;0.20;0.20;;;;;;;1.70;92.63;96795.59;4982254;28;20222;-78
2023/12/17 08:45:29;;;;;;;0.20;0.20;;;;;;;1.70;92.87;96794.78;4982204;28;20209;-78
2023/12/17 08:47:56;;;;;;;0.22;0.22;;;;;;;2.10;92.06;96785.38;4984495;28;20210;-79
2023/12/17 08:50:23;;;;;;;0.20;0.20;;;;;;;2.05;91.07;96777.19;4984271;28;20302;-80
2023/12/17 08:52:50;;;;;;;0.32;0.32;;;;;;;1.88;91.32;96773.47;4988435;28;20961;-78
2023/12/17 08:55:17;;;;;;;0.20;0.20;;;;;;;1.81;91.95;96770.03;4984211;28;20209;-78
2023/12/17 08:57:44;;;;;;;0.95;0.77;;;;;;;1.74;92.28;96775.44;4987145;28;20210;-79
2023/12/17 09:00:16;;;;;;;0.20;0.20;;;;;;;1.82;92.49;96766.31;4984682;28;20202;-78
2023/12/17 09:02:42;;;;;;;2.22;0.65;;;;;;;1.70;92.30;96762.72;4986685;28;20332;-80
2023/12/17 09:05:10;;;;;;;0.20;0.20;;;;;;;2.07;92.28;96764.44;4985734;28;20210;-79
2023/12/17 09:07:37;;;;;;;0.20;0.20;;;;;;;2.34;91.72;96774.84;4987135;28;20225;-79
2023/12/17 09:10:05;;;;;;;0.98;0.98;;;;;;;2.04;91.45;96764.88;4985481;28;20653;-79
2023/12/17 09:12:32;;;;;;;0.20;0.20;;;;;;;2.11;93.03;96760.28;4986277;28;20212;-80
2023/12/17 09:14:58;;;;;;;0.20;0.20;;;;;;;2.05;92.89;96766.50;4966707;28;20210;-80
2023/12/17 09:17:28;;;;;;;0.40;0.40;;;;;;;1.41;93.78;96773.03;4985297;28;20581;-80
2023/12/17 09:19:55;;;;;;;1.45;0.47;;;;;;;1.35;95.20;96781.91;4990766;28;20575;-80
2023/12/17 09:22:22;;;;;;;1.85;0.85;;;;;;;0.92;95.59;96780.97;4986747;28;20330;-79
2023/12/17 09:24:48;;;;;;;0.20;0.20;;;;;;;1.20;95.74;96784.09;4982762;28;20210;-79
2023/12/17 09:27:15;;;;;;;0.20;0.20;;;;;;;1.27;95.10;96779.50;4991662;28;20222;-83
2023/12/17 09:29:42;;;;;;;0.40;0.40;;;;;;;1.53;95.62;96772.31;4981767;28;20214;-79
2023/12/17 09:32:12;;;;;;;0.20;0.20;;;;;;;1.40;94.73;96774.06;4983640;28;20197;-81
2023/12/17 09:34:40;;;;;;;1.65;1.05;;;;;;;1.51;93.89;96771.72;4980061;28;20301;-80
2023/12/17 09:37:07;;;;;;;0.35;0.35;;;;;;;1.34;95.33;96769.59;4990310;28;20256;-81
2023/12/17 09:39:34;;;;;;;0.20;0.20;;;;;;;1.58;95.52;96770.66;4970033;28;20606;-79
2023/12/17 09:42:01;;;;;;;1.95;0.93;;;;;;;1.38;94.95;96775.31;4984856;28;20238;-81
2023/12/17 09:44:28;;;;;;;0.40;0.40;;;;;;;1.31;95.43;96770.03;4981069;28;20626;-79
2023/12/17 09:46:55;;;;;;;0.30;0.30;;;;;;;1.25;95.46;96776.22;4987556;28;20237;-79
2023/12/17 09:49:21;;;;;;;0.25;0.25;;;;;;;1.41;96.47;96774.88;4991363;28;20217;-80
2023/12/17 09:52:00;;;;;;;1.35;1.05;;;;;;;1.43;94.94;96768.28;4991037;28;20704;-81
2023/12/17 09:54:26;;;;;;;0.30;0.30;;;;;;;1.84;93.56;96756.22;4991747;28;20577;-79
2023/12/17 09:56:55;;;;;;;1.25;1.15;;;;;;;1.40;93.19;96751.88;4990286;28;20213;-80
2023/12/17 09:59:23;;;;;;;6.43;1.27;;;;;;;1.09;92.90;96755.41;4991733;28;20213;-81
2023/12/17 10:01:49;;;;;;;0.22;0.22;;;;;;;1.12;93.32;96757.63;4991502;28;20570;-80
2023/12/17 10:04:23;;;;;;;0.47;0.47;;;;;;;1.03;94.23;96742.91;4991201;28;20213;-78
2023/12/17 10:06:51;;;;;;;0.20;0.20;;;;;;;0.90;94.78;96748.34;4982087;28;20656;-78
2023/12/17 10:09:18;;;;;;;0.20;0.20;;;;;;;0.92;94.48;96744.44;4986390;28;20209;-80
2023/12/17 10:11:45;;;;;;;0.20;0.20;;;;;;;1.08;94.94;96737.75;4990913;28;20206;-79
2023/12/17 10:14:21;;;;;;;0.20;0.20;;;;;;;1.13;95.31;96739.75;4974108;28;20245;-81
2023/12/17 10:16:48;;;;;;;0.20;0.20;;;;;;;1.14;95.00;96741.41;4991391;28;20219;-77
2023/12/17 10:19:15;;;;;;;0.32;0.32;;;;;;;1.09;94.72;96744.75;4991357;28;20226;-79
2023/12/17 10:21:42;;;;;;;0.70;0.70;;;;;;;1.09;95.12;96739.41;4991156;28;20297;-81
2023/12/17 10:24:12;;;;;;;0.20;0.20;;;;;;;1.75;94.82;96736.19;4991448;28;20217;-80
2023/12/17 10:26:44;;;;;;;5.53;0.65;;;;;;;2.35;94.45;96714.97;4990281;28;20745;-80
2023/12/17 10:29:14;;;;;;;0.30;0.30;;;;;;;2.78;90.89;96723.66;4990910;28;20216;-79
2023/12/17 10:31:42;;;;;;;0.20;0.20;;;;;;;2.68;89.39;96706.53;4991054;28;20577;-80
2023/12/17 10:34:15;;;;;;;0.20;0.20;;;;;;;3.24;88.54;96716.84;4980799;28;20257;-79
2023/12/17 10:36:43;;;;;;;0.20;0.20;;;;;;;2.58;88.41;96717.78;4989086;28;20243;-78
2023/12/17 10:39:14;;;;;;;0.47;0.47;;;;;;;2.19;89.33;96707.56;4990773;28;21066;-78
2023/12/17 10:41:42;;;;;;;0.20;0.20;;;;;;;2.07;91.56;96708.28;4990913;28;20210;-79
2023/12/17 10:44:12;;;;;;;0.30;0.30;;;;;;;1.53;91.48;96718.91;4990977;28;20330;-80
2023/12/17 10:46:42;;;;;;;0.50;0.50;;;;;;;1.64;92.59;96718.22;4990571;28;20742;-79
2023/12/17 10:49:09;;;;;;;0.20;0.20;;;;;;;1.57;93.14;96717.44;4990740;28;20301;-80
2023/12/17 10:51:39;;;;;;;0.20;0.20;;;;;;;1.89;92.34;96712.84;4990713;28;20317;-80
2023/12/17 10:54:06;;;;;;;0.20;0.20;;;;;;;2.32;91.31;96718.13;4990790;28;20641;-80
2023/12/17 10:56:37;;;;;;;0.20;0.20;;;;;;;2.27;92.10;96716.09;4990401;28;20209;-80
2023/12/17 10:59:08;;;;;;;0.20;0.20;;;;;;;2.54;91.05;96718.44;4990791;28;20209;-79
2023/12/17 11:01:37;;;;;;;0.20;0.20;;;;;;;2.93;89.80;96703.72;4991001;28;20654;-80
2023/12/17 11:04:06;;;;;;;1.55;0.77;;;;;;;2.50;88.92;96704.69;4990438;28;20237;-80
2023/12/17 11:06:33;;;;;;;0.20;0.20;;;;;;;2.32;90.67;96707.41;4989682;28;20210;-80
2023/12/17 11:09:01;;;;;;;0.30;0.30;;;;;;;2.34;89.58;96699.97;4973354;28;20695;-79
2023/12/17 11:11:31;;;;;;;0.30;0.30;;;;;;;2.11;90.88;96690.78;4990497;28;20239;-81
2023/12/17 11:14:00;;;;;;;0.20;0.20;;;;;;;2.44;90.53;96678.88;4990990;28;20601;-79
2023/12/17 11:16:29;;;;;;;0.20;0.20;;;;;;;2.44;88.58;96662.81;4990526;28;20210;-78
2023/12/17 11:18:55;;;;;;;0.30;0.30;;;;;;;2.34;87.92;96671.38;4990740;28;20311;-81
2023/12/17 11:21:23;;;;;;;0.20;0.20;;;;;;;2.63;88.71;96656.38;4990693;28;20217;-79
2023/12/17 11:23:51;;;;;;;0.43;0.43;;;;;;;2.76;89.25;96661.53;4990326;28;20233;-79
2023/12/17 11:26:18;;;;;;;0.20;0.20;;;;;;;2.61;87.58;96669.16;4990451;28;20670;-79
2023/12/17 11:28:46;;;;;;;0.40;0.40;;;;;;;2.29;89.18;96673.09;4990506;28;20214;-81
2023/12/17 11:31:15;;;;;;;0.20;0.20;;;;;;;2.79;88.40;96660.25;4990747;28;20221;-81